createdAt,value
2022-12-03T00:00:29.736Z,100497.59
2022-12-03T00:01:32.467Z,100489.34
2022-12-03T00:02:34.260Z,100495.44
2022-12-03T00:03:37.259Z,100499.19
2022-12-03T00:04:39.095Z,100497.47
2022-12-03T00:05:48.714Z,100491.06
2022-12-03T00:06:51.011Z,100492.03
2022-12-03T00:07:53.783Z,100491.06
2022-12-03T00:08:55.515Z,100489.34
2022-12-03T00:09:58.260Z,100489.34
2022-12-03T00:10:59.947Z,100494.59
2022-12-03T00:12:03.043Z,100491.06
2022-12-03T00:13:04.914Z,100490.31
2022-12-03T00:14:07.658Z,100489.47
2022-12-03T00:15:11.201Z,100496.72
2022-12-03T00:16:14.096Z,100489.78
2022-12-03T00:17:15.864Z,100492.59
2022-12-03T00:18:18.540Z,100489.03
2022-12-03T00:19:20.257Z,100491.75
2022-12-03T00:20:24.461Z,100492.47
2022-12-03T00:21:27.485Z,100492.31
2022-12-03T00:22:30.315Z,100482.06
2022-12-03T00:23:33.971Z,100482.78
2022-12-03T00:24:39.860Z,100485.66
2022-12-03T00:25:41.583Z,100484.78
2022-12-03T00:26:44.277Z,100483.63
2022-12-03T00:27:46.107Z,100487.19
2022-12-03T00:28:48.751Z,100485.47
2022-12-03T00:29:50.510Z,100483.75
2022-12-03T00:30:54.171Z,100482.78
2022-12-03T00:31:56.031Z,100483.63
2022-12-03T00:32:59.117Z,100480.22
2022-12-03T00:34:00.943Z,100480.78
2022-12-03T00:35:03.878Z,100482.06
2022-12-03T00:36:06.544Z,100477.09
2022-12-03T00:37:10.553Z,100483.75
2022-12-03T00:38:12.379Z,100482.78
2022-12-03T00:39:15.147Z,100475.50
2022-12-03T00:40:17.024Z,100481.78
2022-12-03T00:41:19.707Z,100481.66
2022-12-03T00:42:21.401Z,100480.50
2022-12-03T00:43:24.111Z,100474.22
2022-12-03T00:44:26.212Z,100475.94
2022-12-03T00:45:28.963Z,100476.38
2022-12-03T00:46:30.693Z,100484.19
2022-12-03T00:47:33.419Z,100473.38
2022-12-03T00:48:35.183Z,100473.38
2022-12-03T00:49:37.875Z,100473.97
2022-12-03T00:50:39.564Z,100476.66
2022-12-03T00:51:42.292Z,100484.91
2022-12-03T00:52:46.473Z,100472.38
2022-12-03T00:53:48.263Z,100483.94
2022-12-03T00:54:51.274Z,100483.06
2022-12-03T00:55:53.303Z,100486.63
2022-12-03T00:56:56.025Z,100482.78
2022-12-03T00:57:57.806Z,100479.94
2022-12-03T00:59:00.450Z,100487.06
2022-12-03T01:00:02.157Z,100484.34
2022-12-03T01:01:04.900Z,100479.94
2022-12-03T01:02:06.704Z,100484.34
2022-12-03T01:03:09.423Z,100479.63
2022-12-03T01:04:11.230Z,100477.91
2022-12-03T01:05:14.067Z,100481.47
2022-12-03T01:06:15.862Z,100483.31
2022-12-03T01:07:18.520Z,100479.63
2022-12-03T01:08:21.668Z,100480.50
2022-12-03T01:09:24.347Z,100480.34
2022-12-03T01:10:26.081Z,100480.34
2022-12-03T01:11:41.454Z,100488.47
2022-12-03T01:12:43.449Z,100490.47
2022-12-03T01:13:46.148Z,100478.78
2022-12-03T01:14:47.881Z,100480.63
2022-12-03T01:15:50.565Z,100480.50
2022-12-03T01:16:52.269Z,100481.34
2022-12-03T01:17:55.036Z,100489.47
2022-12-03T01:18:56.860Z,100493.34
2022-12-03T01:20:01.564Z,100497.03
2022-12-03T01:21:03.311Z,100491.63
2022-12-03T01:22:06.066Z,100482.94
2022-12-03T01:23:07.758Z,100488.06
2022-12-03T01:24:11.905Z,100482.50
2022-12-03T01:25:13.608Z,100491.75
2022-12-03T01:26:16.363Z,100487.06
2022-12-03T01:27:18.054Z,100491.44
2022-12-03T01:28:20.770Z,100494.75
2022-12-03T01:29:22.652Z,100488.34
2022-12-03T01:30:25.364Z,100489.88
2022-12-03T01:31:45.554Z,100486.19
2022-12-03T01:32:47.320Z,100491.88
2022-12-03T01:33:48.984Z,100487.19
2022-12-03T01:34:53.500Z,100481.63
2022-12-03T01:35:55.411Z,100488.91
2022-12-03T01:36:58.097Z,100483.31
2022-12-03T01:37:59.777Z,100487.75
2022-12-03T01:39:02.547Z,100484.03
2022-12-03T01:40:08.255Z,100486.19
2022-12-03T01:41:12.063Z,100480.59
2022-12-03T01:42:15.931Z,100491.44
2022-12-03T01:43:18.636Z,100487.06
2022-12-03T01:44:22.734Z,100486.19
2022-12-03T01:45:25.551Z,100483.31
2022-12-03T01:46:32.510Z,100483.19
2022-12-03T01:47:36.697Z,100493.16
2022-12-03T01:48:38.627Z,100486.19
2022-12-03T01:49:44.420Z,100482.63
2022-12-03T01:50:46.308Z,100479.91
2022-12-03T01:51:49.887Z,100487.91
2022-12-03T01:52:53.220Z,100484.59
2022-12-03T01:53:54.942Z,100487.31
2022-12-03T01:55:00.629Z,100491.75
2022-12-03T01:56:03.742Z,100490.75
2022-12-03T01:57:06.973Z,100488.03
2022-12-03T01:58:09.461Z,100489.59
2022-12-03T01:59:15.443Z,100485.19
2022-12-03T02:00:19.098Z,100486.88
2022-12-03T02:01:21.849Z,100492.28
2022-12-03T02:02:25.192Z,100486.88
2022-12-03T02:03:27.979Z,100486.75
2022-12-03T02:04:29.964Z,100492.16
2022-12-03T02:05:34.263Z,100496.03
2022-12-03T02:06:35.979Z,100486.75
2022-12-03T02:07:38.683Z,100489.31
2022-12-03T02:08:40.883Z,100493.88
2022-12-03T02:09:45.230Z,100489.59
2022-12-03T02:10:46.950Z,100493.03
2022-12-03T02:11:51.745Z,100488.47
2022-12-03T02:12:56.027Z,100491.31
2022-12-03T02:14:03.469Z,100493.03
2022-12-03T02:15:06.611Z,100492.16
2022-12-03T02:16:09.945Z,100491.31
2022-12-03T02:17:11.801Z,100485.03
2022-12-03T02:18:14.516Z,100491.16
2022-12-03T02:19:20.201Z,100490.19
2022-12-03T02:20:23.332Z,100490.31
2022-12-03T02:21:28.872Z,100485.63
2022-12-03T02:22:36.373Z,100493.88
2022-12-03T02:23:43.058Z,100492.03
2022-12-03T02:24:50.856Z,100497.44
2022-12-03T02:25:54.218Z,100488.47
2022-12-03T02:26:57.003Z,100485.75
2022-12-03T02:27:59.261Z,100490.00
2022-12-03T02:29:03.971Z,100489.03
2022-12-03T02:30:08.120Z,100489.03
2022-12-03T02:31:10.917Z,100485.44
2022-12-03T02:32:12.621Z,100488.31
2022-12-03T02:33:15.551Z,100491.88
2022-12-03T02:34:38.366Z,100486.44
2022-12-03T02:35:41.145Z,100486.31
2022-12-03T02:36:42.880Z,100497.88
2022-12-03T02:37:46.616Z,100488.03
2022-12-03T02:38:49.179Z,100485.19
2022-12-03T02:39:53.811Z,100493.13
2022-12-03T02:40:59.479Z,100487.91
2022-12-03T02:42:19.854Z,100476.91
2022-12-03T02:43:23.263Z,100482.19
2022-12-03T02:44:25.079Z,100481.31
2022-12-03T02:45:29.567Z,100484.75
2022-12-03T02:46:31.336Z,100476.47
2022-12-03T02:47:35.101Z,100486.28
2022-12-03T02:48:38.894Z,100488.00
2022-12-03T02:49:40.902Z,100489.72
2022-12-03T02:50:45.161Z,100483.44
2022-12-03T02:51:46.843Z,100481.75
2022-12-03T02:52:49.986Z,100487.28
2022-12-03T02:53:53.842Z,100478.16
2022-12-03T02:54:56.553Z,100483.44
2022-12-03T02:56:01.748Z,100481.44
2022-12-03T02:57:04.776Z,100478.72
2022-12-03T02:58:07.264Z,100477.72
2022-12-03T02:59:10.004Z,100479.59
2022-12-03T03:00:13.181Z,100478.59
2022-12-03T03:01:17.016Z,100475.88
2022-12-03T03:02:19.325Z,100472.31
2022-12-03T03:03:22.509Z,100475.88
2022-12-03T03:04:24.958Z,100482.16
2022-12-03T03:05:27.847Z,100480.44
2022-12-03T03:06:29.567Z,100483.28
2022-12-03T03:07:32.251Z,100479.59
2022-12-03T03:08:34.867Z,100481.44
2022-12-03T03:09:37.655Z,100474.34
2022-12-03T03:10:41.025Z,100479.75
2022-12-03T03:11:45.020Z,100478.72
2022-12-03T03:12:46.831Z,100475.03
2022-12-03T03:13:49.468Z,100482.28
2022-12-03T03:14:51.303Z,100483.00
2022-12-03T03:15:54.312Z,100481.31
2022-12-03T03:16:56.325Z,100473.03
2022-12-03T03:17:59.115Z,100474.72
2022-12-03T03:19:00.921Z,100484.56
2022-12-03T03:20:03.974Z,100478.16
2022-12-03T03:21:06.491Z,100478.88
2022-12-03T03:22:10.777Z,100475.31
2022-12-03T03:23:17.792Z,100476.16
2022-12-03T03:24:20.807Z,100478.88
2022-12-03T03:25:24.664Z,100477.84
2022-12-03T03:26:27.342Z,100480.56
2022-12-03T03:27:30.702Z,100483.25
2022-12-03T03:28:35.859Z,100483.25
2022-12-03T03:29:37.599Z,100475.00
2022-12-03T03:30:40.789Z,100484.13
2022-12-03T03:31:43.247Z,100479.56
2022-12-03T03:32:45.955Z,100488.69
2022-12-03T03:33:48.482Z,100485.97
2022-12-03T03:34:51.474Z,100481.13
2022-12-03T03:35:53.692Z,100480.13
2022-12-03T03:36:56.534Z,100485.53
2022-12-03T03:37:58.742Z,100484.72
2022-12-03T03:39:01.465Z,100479.97
2022-12-03T03:40:03.734Z,100482.69
2022-12-03T03:41:07.483Z,100480.13
2022-12-03T03:42:09.545Z,100480.97
2022-12-03T03:43:13.715Z,100474.69
2022-12-03T03:44:15.446Z,100483.00
2022-12-03T03:45:19.228Z,100477.56
2022-12-03T03:46:23.455Z,100481.28
2022-12-03T03:47:26.334Z,100486.69
2022-12-03T03:48:28.286Z,100476.72
2022-12-03T03:49:30.979Z,100475.84
2022-12-03T03:50:32.818Z,100472.44
2022-12-03T03:51:36.946Z,100469.59
2022-12-03T03:52:39.715Z,100480.56
2022-12-03T03:53:44.679Z,100473.72
2022-12-03T03:54:46.674Z,100471.19
2022-12-03T03:55:50.722Z,100470.16
2022-12-03T03:56:53.527Z,100475.88
2022-12-03T03:57:55.460Z,100469.91
2022-12-03T03:58:59.499Z,100469.59
2022-12-03T04:00:01.189Z,100469.75
2022-12-03T04:01:03.935Z,100469.75
2022-12-03T04:02:05.659Z,100462.47
2022-12-03T04:03:08.327Z,100464.31
2022-12-03T04:04:18.616Z,100460.78
2022-12-03T04:05:22.895Z,100468.91
2022-12-03T04:06:25.551Z,100461.63
2022-12-03T04:07:27.270Z,100469.59
2022-12-03T04:08:29.961Z,100458.63
2022-12-03T04:09:31.611Z,100463.06
2022-12-03T04:10:51.949Z,100463.88
2022-12-03T04:12:11.486Z,100463.88
2022-12-03T04:13:14.167Z,100455.06
2022-12-03T04:14:17.200Z,100457.66
2022-12-03T04:15:19.876Z,100455.94
2022-12-03T04:16:22.703Z,100450.50
2022-12-03T04:17:24.601Z,100456.78
2022-12-03T04:18:45.161Z,100451.38
2022-12-03T04:19:46.847Z,100455.75
2022-12-03T04:20:49.556Z,100450.50
2022-12-03T04:22:09.798Z,100445.94
2022-12-03T04:23:11.516Z,100445.94
2022-12-03T04:24:14.147Z,100440.53
2022-12-03T04:25:34.190Z,100440.66
2022-12-03T04:26:54.603Z,100444.09
2022-12-03T04:28:15.040Z,100443.94
2022-12-03T04:29:19.523Z,100442.94
2022-12-03T04:30:21.171Z,100445.78
2022-12-03T04:31:41.194Z,100444.94
2022-12-03T04:33:01.527Z,100438.69
2022-12-03T04:34:21.737Z,100444.22
2022-12-03T04:35:42.196Z,100445.94
2022-12-03T04:36:44.974Z,100443.50
2022-12-03T04:37:46.647Z,100449.97
2022-12-03T04:38:49.331Z,100441.25
2022-12-03T04:39:52.034Z,100441.09
2022-12-03T04:41:04.249Z,100445.66
2022-12-03T04:42:07.653Z,100443.09
2022-12-03T04:43:09.350Z,100448.50
2022-12-03T04:44:29.760Z,100454.53
2022-12-03T04:45:33.939Z,100443.81
2022-12-03T04:46:35.688Z,100441.09
2022-12-03T04:47:39.976Z,100440.81
2022-12-03T04:48:41.850Z,100445.22
2022-12-03T04:49:46.189Z,100439.69
2022-12-03T04:50:48.054Z,100437.66
2022-12-03T04:51:50.764Z,100441.22
2022-12-03T04:52:52.423Z,100447.63
2022-12-03T04:53:55.110Z,100446.63
2022-12-03T04:54:57.784Z,100446.63
2022-12-03T04:55:59.462Z,100455.63
2022-12-03T04:57:02.266Z,100447.50
2022-12-03T04:58:04.268Z,100441.09
2022-12-03T04:59:10.131Z,100454.63
2022-12-03T05:00:16.818Z,100443.66
2022-12-03T05:01:20.926Z,100449.94
2022-12-03T05:02:23.681Z,100445.50
2022-12-03T05:03:25.474Z,100454.50
2022-12-03T05:04:28.319Z,100449.94
2022-12-03T05:05:30.013Z,100445.34
2022-12-03T05:06:32.697Z,100450.06
2022-12-03T05:07:34.552Z,100447.34
2022-12-03T05:08:37.331Z,100445.66
2022-12-03T05:09:40.002Z,100438.50
2022-12-03T05:10:41.764Z,100441.22
2022-12-03T05:11:44.657Z,100442.94
2022-12-03T05:12:46.539Z,100443.06
2022-12-03T05:13:50.082Z,100437.66
2022-12-03T05:14:52.124Z,100443.78
2022-12-03T05:15:54.999Z,100443.66
2022-12-03T05:16:58.109Z,100444.50
2022-12-03T05:18:00.855Z,100438.25
2022-12-03T05:19:02.551Z,100436.53
2022-12-03T05:20:23.300Z,100446.19
2022-12-03T05:21:26.159Z,100449.06
2022-12-03T05:22:27.815Z,100447.34
2022-12-03T05:23:30.535Z,100448.34
2022-12-03T05:24:32.176Z,100446.63
2022-12-03T05:25:34.874Z,100447.63
2022-12-03T05:26:36.620Z,100444.09
2022-12-03T05:27:39.255Z,100444.94
2022-12-03T05:28:40.964Z,100449.34
2022-12-03T05:29:43.641Z,100441.41
2022-12-03T05:30:45.448Z,100443.25
2022-12-03T05:31:48.181Z,100453.22
2022-12-03T05:32:51.291Z,100442.38
2022-12-03T05:33:54.708Z,100448.66
2022-12-03T05:34:56.916Z,100446.09
2022-12-03T05:35:59.768Z,100440.81
2022-12-03T05:37:01.415Z,100436.97
2022-12-03T05:38:04.119Z,100438.81
2022-12-03T05:39:05.912Z,100447.09
2022-12-03T05:40:09.780Z,100439.13
2022-12-03T05:41:30.071Z,100434.41
2022-12-03T05:42:50.448Z,100438.41
2022-12-03T05:43:53.168Z,100439.41
2022-12-03T05:44:55.192Z,100437.84
2022-12-03T05:45:58.132Z,100437.84
2022-12-03T05:46:59.864Z,100433.44
2022-12-03T05:48:05.153Z,100432.25
2022-12-03T05:49:06.829Z,100441.41
2022-12-03T05:50:09.832Z,100434.28
2022-12-03T05:51:11.511Z,100441.41
2022-12-03T05:52:14.244Z,100436.81
2022-12-03T05:53:17.053Z,100442.25
2022-12-03T05:54:19.780Z,100438.84
2022-12-03T05:55:21.647Z,100444.25
2022-12-03T05:56:24.385Z,100445.25
2022-12-03T05:57:26.057Z,100446.09
2022-12-03T05:58:28.771Z,100443.28
2022-12-03T05:59:30.480Z,100445.81
2022-12-03T06:00:42.362Z,100441.97
2022-12-03T06:01:44.659Z,100443.97
2022-12-03T06:02:47.794Z,100444.41
2022-12-03T06:03:52.050Z,100447.97
2022-12-03T06:04:54.306Z,100446.84
2022-12-03T06:05:57.162Z,100444.25
2022-12-03T06:06:59.846Z,100445.13
2022-12-03T06:08:01.812Z,100440.84
2022-12-03T06:09:05.065Z,100444.56
2022-12-03T06:10:09.352Z,100445.56
2022-12-03T06:11:11.972Z,100442.84
2022-12-03T06:12:13.656Z,100438.44
2022-12-03T06:13:16.298Z,100446.84
2022-12-03T06:14:18.014Z,100441.28
2022-12-03T06:15:21.024Z,100440.41
2022-12-03T06:16:22.835Z,100444.84
2022-12-03T06:17:25.596Z,100437.69
2022-12-03T06:18:27.277Z,100438.56
2022-12-03T06:19:31.334Z,100439.72
2022-12-03T06:20:33.060Z,100446.56
2022-12-03T06:21:35.863Z,100441.44
2022-12-03T06:22:37.499Z,100438.72
2022-12-03T06:23:44.468Z,100437.00
2022-12-03T06:24:46.550Z,100439.44
2022-12-03T06:25:49.199Z,100437.44
2022-12-03T06:26:50.852Z,100436.47
2022-12-03T06:27:53.586Z,100439.31
2022-12-03T06:28:55.347Z,100433.75
2022-12-03T06:29:57.967Z,100434.75
2022-12-03T06:30:59.724Z,100432.03
2022-12-03T06:32:02.507Z,100434.19
2022-12-03T06:33:04.246Z,100432.03
2022-12-03T06:34:07.009Z,100431.19
2022-12-03T06:35:10.343Z,100431.19
2022-12-03T06:36:14.542Z,100424.06
2022-12-03T06:37:18.561Z,100426.75
2022-12-03T06:38:22.269Z,100423.19
2022-12-03T06:39:23.975Z,100425.75
2022-12-03T06:40:26.735Z,100423.50
2022-12-03T06:41:28.412Z,100421.78
2022-12-03T06:42:31.181Z,100428.91
2022-12-03T06:43:32.887Z,100423.50
2022-12-03T06:44:35.674Z,100427.06
2022-12-03T06:45:37.360Z,100426.22
2022-12-03T06:46:40.070Z,100418.94
2022-12-03T06:47:41.811Z,100419.94
2022-12-03T06:48:44.433Z,100425.34
2022-12-03T06:49:46.140Z,100431.63
2022-12-03T06:50:50.178Z,100427.06
2022-12-03T06:51:51.999Z,100429.78
2022-12-03T06:52:54.656Z,100429.78
2022-12-03T06:53:56.332Z,100425.22
2022-12-03T06:54:59.044Z,100426.91
2022-12-03T06:56:01.256Z,100431.19
2022-12-03T06:57:03.983Z,100433.03
2022-12-03T06:58:05.705Z,100427.63
2022-12-03T06:59:08.393Z,100428.59
2022-12-03T07:00:12.397Z,100428.47
2022-12-03T07:01:14.206Z,100425.75
2022-12-03T07:02:16.916Z,100422.94
2022-12-03T07:03:18.639Z,100424.59
2022-12-03T07:04:21.403Z,100425.47
2022-12-03T07:05:23.135Z,100419.19
2022-12-03T07:06:27.275Z,100432.59
2022-12-03T07:07:30.024Z,100430.88
2022-12-03T07:08:32.118Z,100434.75
2022-12-03T07:09:34.751Z,100429.16
2022-12-03T07:10:36.490Z,100432.91
2022-12-03T07:11:41.032Z,100439.16
2022-12-03T07:12:42.745Z,100439.16
2022-12-03T07:13:45.813Z,100442.44
2022-12-03T07:14:48.482Z,100449.69
2022-12-03T07:15:50.216Z,100449.41
2022-12-03T07:16:53.115Z,100446.69
2022-12-03T07:17:54.759Z,100446.69
2022-12-03T07:18:57.449Z,100446.56
2022-12-03T07:20:00.247Z,100454.13
2022-12-03T07:21:01.989Z,100445.28
2022-12-03T07:22:06.118Z,100449.13
2022-12-03T07:23:07.791Z,100447.13
2022-12-03T07:24:10.667Z,100447.72
2022-12-03T07:25:16.786Z,100447.53
2022-12-03T07:26:22.261Z,100446.84
2022-12-03T07:27:25.122Z,100442.97
2022-12-03T07:28:26.830Z,100446.41
2022-12-03T07:29:29.500Z,100440.84
2022-12-03T07:30:31.220Z,100444.41
2022-12-03T07:31:34.223Z,100448.50
2022-12-03T07:32:35.919Z,100445.53
2022-12-03T07:33:38.647Z,100445.22
2022-12-03T07:34:41.344Z,100443.78
2022-12-03T07:35:43.065Z,100446.19
2022-12-03T07:36:45.756Z,100449.06
2022-12-03T07:37:48.920Z,100443.34
2022-12-03T07:38:51.983Z,100439.66
2022-12-03T07:39:54.615Z,100439.34
2022-12-03T07:40:57.351Z,100441.06
2022-12-03T07:42:00.074Z,100442.59
2022-12-03T07:43:01.730Z,100438.75
2022-12-03T07:44:09.150Z,100440.47
2022-12-03T07:45:15.239Z,100428.47
2022-12-03T07:46:18.062Z,100437.31
2022-12-03T07:47:19.775Z,100441.56
2022-12-03T07:48:22.424Z,100437.00
2022-12-03T07:49:26.655Z,100436.69
2022-12-03T07:50:28.387Z,100431.84
2022-12-03T07:51:32.484Z,100436.97
2022-12-03T07:52:34.373Z,100439.53
2022-12-03T07:53:38.541Z,100435.66
2022-12-03T07:54:40.355Z,100439.09
2022-12-03T07:55:43.121Z,100437.91
2022-12-03T07:56:45.803Z,100440.50
2022-12-03T07:57:47.482Z,100443.91
2022-12-03T07:58:50.163Z,100439.19
2022-12-03T07:59:51.961Z,100440.19
2022-12-03T08:00:54.713Z,100441.91
2022-12-03T08:01:56.587Z,100442.59
2022-12-03T08:02:59.385Z,100442.44
2022-12-03T08:04:02.131Z,100444.00
2022-12-03T08:05:04.502Z,100443.69
2022-12-03T08:06:07.574Z,100441.84
2022-12-03T08:07:09.219Z,100444.56
2022-12-03T08:08:11.942Z,100445.28
2022-12-03T08:09:16.346Z,100451.69
2022-12-03T08:10:19.412Z,100448.84
2022-12-03T08:11:22.090Z,100452.25
2022-12-03T08:12:40.068Z,100445.69
2022-12-03T08:13:43.331Z,100448.06
2022-12-03T08:14:44.976Z,100452.78
2022-12-03T08:15:48.024Z,100448.22
2022-12-03T08:16:49.809Z,100448.22
2022-12-03T08:17:56.150Z,100448.94
2022-12-03T08:18:58.847Z,100449.66
2022-12-03T08:20:00.485Z,100448.47
2022-12-03T08:21:03.446Z,100445.63
2022-12-03T08:22:13.808Z,100447.16
2022-12-03T08:23:17.943Z,100448.56
2022-12-03T08:24:21.381Z,100443.31
2022-12-03T08:25:28.831Z,100444.00
2022-12-03T08:26:30.506Z,100444.84
2022-12-03T08:27:33.232Z,100447.56
2022-12-03T08:28:36.048Z,100444.72
2022-12-03T08:29:38.846Z,100439.97
2022-12-03T08:30:41.035Z,100437.66
2022-12-03T08:31:45.923Z,100437.50
2022-12-03T08:32:48.217Z,100439.03
2022-12-03T08:33:52.638Z,100441.47
2022-12-03T08:34:54.561Z,100444.03
2022-12-03T08:35:57.715Z,100434.88
2022-12-03T08:37:03.356Z,100429.28
2022-12-03T08:38:10.168Z,100439.84
2022-12-03T08:39:27.383Z,100433.41
2022-12-03T08:40:35.676Z,100436.13
2022-12-03T08:41:55.918Z,100432.41
2022-12-03T08:42:58.777Z,100442.25
2022-12-03T08:44:00.482Z,100442.94
2022-12-03T08:45:39.821Z,100436.25
2022-12-03T08:46:42.068Z,100442.41
2022-12-03T08:47:44.721Z,100439.53
2022-12-03T08:48:49.463Z,100440.22
2022-12-03T08:49:55.067Z,100433.94
2022-12-03T08:51:00.020Z,100438.38
2022-12-03T08:52:02.156Z,100439.22
2022-12-03T08:53:16.407Z,100440.09
2022-12-03T08:54:20.895Z,100439.94
2022-12-03T08:55:34.361Z,100439.94
2022-12-03T08:56:37.863Z,100444.34
2022-12-03T08:57:43.235Z,100445.38
2022-12-03T08:58:48.158Z,100444.34
2022-12-03T08:59:52.315Z,100441.34
2022-12-03T09:00:58.035Z,100441.16
2022-12-03T09:02:01.122Z,100441.88
2022-12-03T09:03:02.932Z,100442.72
2022-12-03T09:04:30.627Z,100446.97
2022-12-03T09:05:32.446Z,100436.81
2022-12-03T09:06:35.318Z,100444.97
2022-12-03T09:07:38.080Z,100444.13
2022-12-03T09:08:39.814Z,100451.25
2022-12-03T09:09:42.511Z,100439.41
2022-12-03T09:10:45.595Z,100440.94
2022-12-03T09:11:48.606Z,100438.28
2022-12-03T09:12:51.304Z,100439.72
2022-12-03T09:13:52.997Z,100446.34
2022-12-03T09:14:56.117Z,100440.63
2022-12-03T09:15:57.997Z,100438.59
2022-12-03T09:17:00.774Z,100436.72
2022-12-03T09:18:03.554Z,100443.88
2022-12-03T09:19:06.324Z,100435.56
2022-12-03T09:20:09.878Z,100428.28
2022-12-03T09:21:11.654Z,100428.28
2022-12-03T09:22:15.174Z,100431.69
2022-12-03T09:23:17.279Z,100425.09
2022-12-03T09:24:20.163Z,100421.41
2022-12-03T09:25:21.896Z,100424.94
2022-12-03T09:26:27.121Z,100424.13
2022-12-03T09:27:29.790Z,100423.09
2022-12-03T09:28:31.654Z,100424.13
2022-12-03T09:29:34.330Z,100426.66
2022-12-03T09:30:36.072Z,100429.22
2022-12-03T09:31:38.989Z,100428.22
2022-12-03T09:32:40.693Z,100434.34
2022-12-03T09:33:44.069Z,100428.91
2022-12-03T09:34:47.058Z,100431.63
2022-12-03T09:35:48.875Z,100432.31
2022-12-03T09:36:51.613Z,100437.63
2022-12-03T09:37:53.662Z,100424.84
2022-12-03T09:38:56.391Z,100438.44
2022-12-03T09:39:58.236Z,100433.00
2022-12-03T09:41:01.925Z,100436.56
2022-12-03T09:42:06.480Z,100431.16
2022-12-03T09:43:08.517Z,100427.75
2022-12-03T09:44:17.470Z,100431.31
2022-12-03T09:45:19.662Z,100430.28
2022-12-03T09:46:23.254Z,100423.19
2022-12-03T09:47:25.240Z,100423.19
2022-12-03T09:48:27.988Z,100425.03
2022-12-03T09:49:32.407Z,100415.88
2022-12-03T09:50:35.280Z,100417.75
2022-12-03T09:51:37.117Z,100420.28
2022-12-03T09:52:39.800Z,100417.41
2022-12-03T09:53:41.734Z,100413.69
2022-12-03T09:54:47.518Z,100409.13
2022-12-03T09:55:49.779Z,100406.69
2022-12-03T09:56:52.869Z,100399.88
2022-12-03T09:57:57.244Z,100400.22
2022-12-03T09:59:00.543Z,100402.22
2022-12-03T10:00:02.230Z,100395.78
2022-12-03T10:01:14.470Z,100396.78
2022-12-03T10:02:21.945Z,100399.69
2022-12-03T10:03:30.043Z,100393.84
2022-12-03T10:04:32.059Z,100395.84
2022-12-03T10:05:35.691Z,100391.28
2022-12-03T10:06:43.953Z,100391.41
2022-12-03T10:07:48.732Z,100397.56
2022-12-03T10:08:52.937Z,100387.84
2022-12-03T10:09:55.925Z,100394.13
2022-12-03T10:10:57.900Z,100392.44
2022-12-03T10:12:01.127Z,100389.03
2022-12-03T10:13:04.764Z,100394.59
2022-12-03T10:14:07.582Z,100391.03
2022-12-03T10:15:12.355Z,100392.75
2022-12-03T10:16:17.394Z,100391.03
2022-12-03T10:17:20.359Z,100396.19
2022-12-03T10:18:24.888Z,100392.13
2022-12-03T10:19:29.867Z,100392.66
2022-12-03T10:20:31.646Z,100397.22
2022-12-03T10:21:37.773Z,100395.94
2022-12-03T10:22:39.628Z,100391.34
2022-12-03T10:23:43.606Z,100392.22
2022-12-03T10:24:46.306Z,100395.44
2022-12-03T10:25:52.860Z,100388.16
2022-12-03T10:26:57.047Z,100389.16
2022-12-03T10:28:00.503Z,100377.47
2022-12-03T10:29:13.057Z,100389.50
2022-12-03T10:30:16.689Z,100388.81
2022-12-03T10:31:19.501Z,100385.22
2022-12-03T10:32:25.669Z,100383.50
2022-12-03T10:33:33.938Z,100383.66
2022-12-03T10:34:37.487Z,100375.66
2022-12-03T10:35:42.655Z,100373.78
2022-12-03T10:36:44.358Z,100376.50
2022-12-03T10:38:01.173Z,100379.22
2022-12-03T10:39:14.380Z,100375.34
2022-12-03T10:40:24.622Z,100373.50
2022-12-03T10:41:29.177Z,100371.50
2022-12-03T10:42:33.266Z,100371.50
2022-12-03T10:43:35.014Z,100376.63
2022-12-03T10:44:39.185Z,100370.88
2022-12-03T10:45:41.014Z,100375.97
2022-12-03T10:46:44.279Z,100366.81
2022-12-03T10:48:04.867Z,100369.03
2022-12-03T10:49:12.798Z,100364.63
2022-12-03T10:50:20.119Z,100371.63
2022-12-03T10:51:23.027Z,100363.31
2022-12-03T10:52:26.188Z,100368.41
2022-12-03T10:53:31.583Z,100360.97
2022-12-03T10:54:35.826Z,100359.06
2022-12-03T10:55:39.284Z,100358.06
2022-12-03T10:56:41.987Z,100367.94
2022-12-03T10:57:45.851Z,100358.78
2022-12-03T10:58:48.979Z,100360.63
2022-12-03T10:59:52.060Z,100359.44
2022-12-03T11:00:56.566Z,100356.44
2022-12-03T11:01:59.347Z,100357.28
2022-12-03T11:03:01.684Z,100357.09
2022-12-03T11:04:05.831Z,100347.63
2022-12-03T11:05:12.513Z,100348.63
2022-12-03T11:06:16.639Z,100340.50
2022-12-03T11:07:20.112Z,100348.47
2022-12-03T11:08:24.466Z,100341.66
2022-12-03T11:09:28.526Z,100339.13
2022-12-03T11:10:31.235Z,100339.25
2022-12-03T11:11:32.960Z,100347.56
2022-12-03T11:12:35.765Z,100339.59
2022-12-03T11:13:46.767Z,100341.47
2022-12-03T11:15:08.159Z,100339.59
2022-12-03T11:16:10.116Z,100346.91
2022-12-03T11:17:12.869Z,100345.72
2022-12-03T11:19:02.249Z,100341.84
2022-12-03T11:20:06.051Z,100340.78
2022-12-03T11:21:10.060Z,100346.94
2022-12-03T11:22:43.695Z,100343.34
2022-12-03T11:24:15.931Z,100334.50
2022-12-03T11:25:50.374Z,100337.41
2022-12-03T11:27:20.584Z,100340.41
2022-12-03T11:28:33.223Z,100336.03
2022-12-03T11:29:56.315Z,100332.59
2022-12-03T11:31:01.471Z,100323.44
2022-12-03T11:32:04.398Z,100328.03
2022-12-03T11:33:22.389Z,100328.88
2022-12-03T11:34:50.787Z,100330.59
2022-12-03T11:36:11.228Z,100328.03
2022-12-03T11:37:27.528Z,100326.31
2022-12-03T11:38:54.908Z,100329.75
2022-12-03T11:40:03.143Z,100328.56
2022-12-03T11:41:08.715Z,100325.84
2022-12-03T11:42:39.256Z,100329.41
2022-12-03T11:44:06.514Z,100329.41
2022-12-03T11:45:23.176Z,100320.41
2022-12-03T11:46:26.599Z,100315.97
2022-12-03T11:47:29.635Z,100314.28
2022-12-03T11:48:43.726Z,100318.88
2022-12-03T11:49:51.103Z,100305.44
2022-12-03T11:50:53.752Z,100304.44
2022-12-03T11:51:56.573Z,100302.56
2022-12-03T11:53:02.216Z,100303.44
2022-12-03T11:54:04.033Z,100298.16
2022-12-03T11:55:17.429Z,100300.72
2022-12-03T11:56:24.258Z,100302.38
2022-12-03T11:57:29.426Z,100298.84
2022-12-03T11:58:32.152Z,100290.16
2022-12-03T11:59:33.842Z,100299.00
2022-12-03T12:00:36.506Z,100304.28
2022-12-03T12:01:40.630Z,100300.53
2022-12-03T12:02:43.504Z,100298.84
2022-12-03T12:03:48.206Z,100299.66
2022-12-03T12:04:51.383Z,100301.38
2022-12-03T12:06:02.559Z,100295.78
2022-12-03T12:07:05.528Z,100289.66
2022-12-03T12:08:19.850Z,100292.56
2022-12-03T12:09:50.609Z,100294.41
2022-12-03T12:10:53.434Z,100287.13
2022-12-03T12:11:55.144Z,100285.94
2022-12-03T12:12:58.333Z,100292.22
2022-12-03T12:14:01.610Z,100289.66
2022-12-03T12:15:34.379Z,100292.38
2022-12-03T12:16:55.449Z,100283.38